AirNav   Pilot Hours Calculator
 
 800 users online  

0MO9 Emerson Heliport
Ferguson, Missouri, USA

GOING TO FERGUSON?


FAA INFORMATION EFFECTIVE 26 MARCH 2020

Location

FAA Identifier: 0MO9
Lat/Long: 38-43-46.1820N 090-16-42.4060W
38-43.769700N 090-16.706767W
38.7294950,-90.2784461
(estimated)
Elevation: 575 ft. / 175 m (estimated)
Variation: 02E (1985)
From city: 1 mile N of FERGUSON, MO
Time zone: UTC -5 (UTC -6 during Standard Time)
Zip code: 63121

Heliport Operations

Heliport use: Private use. Permission required prior to landing
Activation date: 05/1991
Control tower: no
ARTCC: KANSAS CITY CENTER
FSS: SAINT LOUIS FLIGHT SERVICE STATION
Attendance: UNATNDD
Wind indicator: yes
Segmented circle: no
Lights: FOR PERIMETER LGTS CALL 314-553-1301.

Heliport Communications

WX ASOS at STL (4 nm W): 125.025 (314-890-4790)
WX ASOS at CPS (11 nm SE): PHONE 618-332-0001
WX ASOS at SET (14 nm NW): 118.075 (636-250-4590)
WX AWOS-3 at ALN (15 nm NE): 128.0 (618-259-7231)
WX ASOS at SUS (18 nm W): 134.8 (314-890-7255)

Nearby radio navigation aids

VOR radial/distance  VOR name  Freq  Var
STLr129/12.4ST LOUIS VORTAC117.4001E
TOYr264/16.9TROY VORTAC116.0004E
FTZr081/32.5FORISTELL VORTAC110.8005E

 
NDB name  Hdg/Dist  Freq  Var  ID
EAVES077/13.022701WFZ ..-. --..
CIVIC MEMORIAL228/14.326301WCVM -.-. ...- --

Heliport Services

Runway Information

Helipad H1

Dimensions: 50 x 50 ft. / 15 x 15 m
Surface: concrete
Runway edge lights: PERI
Operational restrictions: CIRCULAR PAD.
Latitude: 38-43.769700N
Longitude: 090-16.706767W
Elevation: 575.0 ft.
Traffic pattern: leftleft

Heliport Ownership and Management from official FAA records

Ownership: Privately-owned
Owner: EMERSON ELECTRIC CO
18444 EDISON AVE
CHESTERFIELD, MO 63005-3631
Phone (314) 553-2225
Manager: STEVE VON GRUBEN
18444 EDISON AVE
CHESTERFIELD, MO 63005-3631
Phone (314) 553-2225

Additional Remarks

OWNER DESIRES ARPT NOT BE CHARTED.
FOR CD CTC ST LOUIS APCH AT 314-890-1018.

Instrument Procedures

There are no published instrument procedures at 0MO9.

Some nearby airports with instrument procedures:

KSTL - St Louis Lambert International Airport (4 nm W)
1H0 - Creve Coeur Airport (11 nm W)
KCPS - St Louis Downtown Airport (11 nm SE)
KSET - St Charles County Smartt Airport (14 nm NW)
KALN - St Louis Regional Airport (15 nm NE)
KSUS - Spirit of St Louis Airport (18 nm W)
 
Loc | Ops | Rwys | IFR | FBO | Links
Com | Nav | Svcs | Stats | Notes

Kansas City Aviation Department
 
Area around 0MO9 (Emerson Heliport)
 
Road maps at: MapQuest Bing Google
 
Aerial photo
No photo
 
Sectional chart

 
Airport distance calculator
Flying to Emerson Heliport? Find the distance to fly.

From to 0MO9

Sunrise and sunset
Times for 03-Apr-2020
 Local
(UTC-5)
 Zulu
(UTC)
Morning civil twilight06:1511:15
Sunrise06:4211:42
Sunset19:2600:26
Evening civil twilight19:5300:53

Current date and time
Zulu (UTC)  04-Apr-2020 00:49:21
Local (UTC-5)  03-Apr-2020 19:49:21
 
METAR
KSTL 
4nm W 
032351Z 27014KT 10SM BKN075 OVC110 16/09 A3002 RMK AO2 SLP164 T01560089 10233 20156 53015
KCPS 
11nm SE 
032353Z 29006KT 10SM OVC060 17/11 A3000 RMK AO2 SLP158 T01720106 10222 20172 53011
KSET 
14nm NW 
032354Z AUTO 30011KT 10SM OVC070 16/08 A3002 RMK AO2 SLP163 T01610083 10228 20161 53019 $
KALN 
15nm NE 
032350Z 32011KT 10SM OVC060 16/11 A3000
KSUS 
18nm W 
032354Z 30009KT 6SM -RA OVC060 14/08 A3003 RMK AO2 RAB49 SLP169 P0001 60001 T01390083 10222 20139 51022
TAF
KSTL 
4nm W 
032053Z 0321/0424 23005KT P6SM OVC070 FM040000 29005KT P6SM VCSH OVC035 FM040200 32005KT P6SM VCSH OVC025 FM040500 33009KT P6SM -SHRA OVC015 FM041500 34008KT P6SM OVC007 FM041900 35006KT P6SM OVC035
KCPS 
11nm SE 
031737Z 0318/0418 23007KT P6SM OVC070 FM032200 24005KT P6SM VCSH OVC045 FM040100 VRB04KT P6SM VCSH OVC025 FM040300 32009KT P6SM VCSH OVC015 FM040800 34009KT P6SM -SHRA OVC007 FM041500 34008KT P6SM OVC007
KSUS 
18nm W 
031737Z 0318/0418 23007KT P6SM OVC070 FM032100 27005KT P6SM VCSH OVC035 FM040000 VRB04KT P6SM VCSH OVC020 FM040100 32006KT P6SM VCSH OVC015 FM041000 34009KT P6SM -SHRA OVC007 FM041500 34007KT P6SM OVC007
NOTAMs
Click for the latest NOTAMs
NOTAMs are issued by the DoD/FAA and will open in a separate window not controlled by AirNav.

 

 
 

Would you like to see your business listed on this page?

 If your business provides an interesting product or service to pilots, flight crews, aircraft, or users of the Emerson Heliport, you should consider listing it here.  To start the listing process, click on the button below
 
Add a business
 

Other Pages about Emerson Heliport

Update a link
 
Copyright © AirNav, LLC. All rights reserved. Privacy Policy  Contact